Time;durP1;ratioP1;P1;durP2;ratioP2;P2;SDS_P1;SDS_P2;PMS_P1;PMS_P2;Temp;Humidity;BMP_temperature;BMP_pressure;BME280_temperature;BME280_humidity;BME280_pressure;Samples;Min_cycle;Max_cycle;Signal;HPM_P1;HPM_P2
2024/03/29 21:26:00;;;;;;;1.80;0.80;;;24.60;56.30;;;;;;5017426;28;20544;-85
2024/03/29 21:28:27;;;;;;;2.83;0.90;;;24.60;56.40;;;;;;5017948;28;20980;-86
2024/03/29 21:30:53;;;;;;;3.70;1.27;;;24.60;57.00;;;;;;5017419;28;20520;-86
2024/03/29 21:33:20;;;;;;;2.47;0.70;;;24.70;56.60;;;;;;5018462;28;20456;-86
2024/03/29 21:35:46;;;;;;;2.17;0.90;;;24.70;56.60;;;;;;5016631;28;20239;-94
2024/03/29 21:38:13;;;;;;;3.27;1.40;;;24.70;56.60;;;;;;5016647;28;20486;-85
2024/03/29 21:40:40;;;;;;;1.97;0.80;;;24.70;56.60;;;;;;5018073;28;20546;-85
2024/03/29 21:49:11;;;;;;;2.27;0.80;;;24.60;56.70;;;;;;5017754;28;20463;-85
2024/03/29 21:51:36;;;;;;;2.43;0.73;;;24.60;56.70;;;;;;5019948;28;20424;-85
2024/03/29 21:54:03;;;;;;;1.60;0.80;;;24.60;56.70;;;;;;5018705;28;20458;-86
2024/03/29 21:56:29;;;;;;;2.60;0.80;;;24.60;56.80;;;;;;5011473;28;20223;-85
2024/03/29 21:58:56;;;;;;;2.27;1.00;;;24.60;56.80;;;;;;4997938;28;20527;-85
2024/03/29 22:01:24;;;;;;;2.03;1.10;;;24.60;56.90;;;;;;4981246;28;20196;-86
2024/03/29 22:03:51;;;;;;;3.33;0.90;;;24.60;56.80;;;;;;5018437;28;20452;-87
2024/03/29 22:06:16;;;;;;;1.70;0.77;;;24.70;56.90;;;;;;5020325;28;20509;-87
2024/03/29 22:08:44;;;;;;;2.43;1.00;;;24.70;56.90;;;;;;5008402;28;20510;-85
2024/03/29 22:11:10;;;;;;;3.10;0.80;;;24.60;56.90;;;;;;5016930;28;20196;-85
2024/03/29 22:16:17;;;;;;;2.73;0.97;;;24.60;57.00;;;;;;5164634;22;20232;-85
2024/03/29 22:18:44;;;;;;;3.30;0.90;;;24.70;57.00;;;;;;5016935;28;20461;-88
2024/03/29 22:21:11;;;;;;;2.10;0.97;;;24.70;57.00;;;;;;5016341;28;20482;-87
2024/03/29 22:23:37;;;;;;;1.40;0.60;;;24.70;57.10;;;;;;5016685;28;20443;-86
2024/03/29 22:26:03;;;;;;;1.50;0.80;;;24.60;57.10;;;;;;5016625;28;20443;-87
2024/03/29 22:28:29;;;;;;;1.53;0.80;;;24.60;57.10;;;;;;5016401;28;20204;-86
2024/03/29 22:30:56;;;;;;;2.63;0.90;;;24.60;57.20;;;;;;5016199;28;20455;-87
2024/03/29 22:33:22;;;;;;;2.13;0.80;;;24.60;57.10;;;;;;5015601;28;20448;-88
2024/03/29 22:35:50;;;;;;;4.07;0.90;;;24.60;57.70;;;;;;5015280;28;20475;-87
2024/03/29 22:38:17;;;;;;;1.70;0.80;;;24.60;57.20;;;;;;5015740;28;20439;-88
2024/03/29 22:40:45;;;;;;;1.50;0.90;;;24.60;57.20;;;;;;5014930;28;20985;-88
2024/03/29 22:43:11;;;;;;;1.87;0.97;;;24.70;57.20;;;;;;5015511;28;20439;-88
2024/03/29 22:45:37;;;;;;;1.87;0.70;;;24.60;57.20;;;;;;5015761;28;20435;-95
2024/03/29 22:48:04;;;;;;;2.23;0.80;;;24.60;57.20;;;;;;5014743;28;20234;-87
2024/03/29 22:50:31;;;;;;;1.60;0.90;;;24.50;57.20;;;;;;5015296;28;20518;-87
2024/03/29 22:52:59;;;;;;;1.40;0.70;;;24.50;57.20;;;;;;5015346;28;20451;-87
2024/03/29 22:55:26;;;;;;;2.90;0.90;;;24.50;57.20;;;;;;5015138;28;20446;-88
2024/03/29 22:57:52;;;;;;;1.40;0.80;;;24.50;57.20;;;;;;5015060;28;20439;-88
2024/03/29 23:00:22;;;;;;;1.50;0.73;;;24.40;57.20;;;;;;5014154;28;20456;-87
2024/03/29 23:02:48;;;;;;;1.40;0.80;;;24.40;57.30;;;;;;5015683;28;20266;-87
2024/03/29 23:05:15;;;;;;;1.60;0.80;;;24.50;57.30;;;;;;5015427;28;20467;-88
2024/03/29 23:07:42;;;;;;;1.50;0.90;;;24.40;57.30;;;;;;5014744;28;20541;-90
2024/03/29 23:10:10;;;;;;;1.40;0.70;;;24.40;57.40;;;;;;5014965;28;20494;-87
2024/03/29 23:12:36;;;;;;;1.50;0.80;;;24.40;57.50;;;;;;5015093;28;20439;-87
2024/03/29 23:15:03;;;;;;;1.57;0.80;;;24.30;57.30;;;;;;5015446;28;20443;-87
2024/03/29 23:17:29;;;;;;;1.40;0.77;;;24.30;57.40;;;;;;5014720;28;20243;-89
2024/03/29 23:19:56;;;;;;;1.70;0.70;;;24.30;57.40;;;;;;5014839;28;20458;-94
2024/03/29 23:22:21;;;;;;;1.80;0.90;;;24.30;57.50;;;;;;5014824;28;20435;-93
2024/03/29 23:24:53;;;;;;;1.53;0.70;;;24.30;57.40;;;;;;5015436;28;20453;-89
2024/03/29 23:27:20;;;;;;;1.93;0.90;;;24.20;57.40;;;;;;5014754;28;20200;-88
2024/03/29 23:29:47;;;;;;;2.77;0.90;;;24.20;57.50;;;;;;5014698;28;20526;-89
2024/03/29 23:32:13;;;;;;;1.50;0.80;;;24.20;57.50;;;;;;5014449;28;20467;-89
2024/03/29 23:34:40;;;;;;;1.60;0.80;;;24.20;57.50;;;;;;5015478;28;20466;-88
2024/03/29 23:37:05;;;;;;;1.60;0.70;;;24.20;57.50;;;;;;5014710;28;20206;-89
2024/03/29 23:39:32;;;;;;;2.53;0.80;;;24.20;57.60;;;;;;5014649;28;20450;-88
2024/03/29 23:41:58;;;;;;;2.80;0.80;;;24.20;57.60;;;;;;5014213;28;20207;-88
2024/03/29 23:44:26;;;;;;;1.50;0.70;;;24.20;57.60;;;;;;5014581;28;20443;-88
2024/03/29 23:46:52;;;;;;;1.40;0.70;;;24.10;57.50;;;;;;5034118;28;20194;-88
2024/03/29 23:49:19;;;;;;;2.87;0.90;;;24.10;57.60;;;;;;5038457;28;20463;-88
2024/03/29 23:51:44;;;;;;;1.77;0.77;;;24.10;57.60;;;;;;5038553;28;20180;-88
2024/03/29 23:54:11;;;;;;;2.00;0.97;;;24.10;57.60;;;;;;5022983;28;20432;-87
2024/03/29 23:56:37;;;;;;;1.40;0.70;;;24.10;57.60;;;;;;5015337;28;20258;-87
2024/03/29 23:59:04;;;;;;;1.40;0.70;;;24.10;57.70;;;;;;5015022;28;20443;-87
